createdAt,value
2017-10-28T00:00:24.059Z,9.70
2017-10-28T00:02:50.673Z,9.70
2017-10-28T00:05:17.200Z,9.70
2017-10-28T00:07:44.112Z,9.70
2017-10-28T00:10:10.684Z,9.90
2017-10-28T00:12:37.253Z,9.90
2017-10-28T00:15:04.036Z,10.00
2017-10-28T00:17:31.693Z,10.00
2017-10-28T00:19:58.312Z,10.00
2017-10-28T00:22:25.213Z,10.00
2017-10-28T00:24:52.097Z,10.10
2017-10-28T00:27:19.693Z,10.20
2017-10-28T00:29:46.403Z,10.10
2017-10-28T00:32:19.985Z,10.10
2017-10-28T00:34:53.387Z,10.10
2017-10-28T00:37:20.352Z,10.10
2017-10-28T00:39:47.044Z,10.20
2017-10-28T00:42:13.672Z,10.10
2017-10-28T00:44:40.356Z,10.20
2017-10-28T00:47:07.815Z,10.30
2017-10-28T00:49:34.468Z,10.20
2017-10-28T00:52:01.228Z,10.30
2017-10-28T00:54:28.765Z,10.20
2017-10-28T00:56:55.640Z,10.20
2017-10-28T00:59:23.425Z,10.10
2017-10-28T01:01:50.051Z,10.00
2017-10-28T01:04:18.988Z,10.00
2017-10-28T01:06:45.831Z,9.90
2017-10-28T01:09:12.777Z,10.00
2017-10-28T01:11:39.478Z,10.00
2017-10-28T01:14:06.257Z,10.00
2017-10-28T01:16:33.717Z,10.10
2017-10-28T01:19:00.411Z,10.00
2017-10-28T01:21:27.110Z,10.00
2017-10-28T01:23:53.928Z,10.00
2017-10-28T01:26:20.636Z,10.00
2017-10-28T01:28:47.435Z,10.10
2017-10-28T01:31:14.210Z,10.10
2017-10-28T01:33:40.850Z,10.10
2017-10-28T01:36:08.690Z,10.20
2017-10-28T01:38:35.839Z,10.20
2017-10-28T01:41:02.460Z,10.20
2017-10-28T01:43:29.154Z,10.30
2017-10-28T01:45:55.883Z,10.20
2017-10-28T01:48:22.602Z,10.30
2017-10-28T01:50:49.554Z,10.30
2017-10-28T01:53:16.681Z,10.30
2017-10-28T01:55:43.302Z,10.30
2017-10-28T01:58:10.004Z,10.30
2017-10-28T02:00:36.644Z,10.20
2017-10-28T02:03:04.463Z,10.30
2017-10-28T02:05:31.397Z,10.20
2017-10-28T02:07:57.984Z,10.30
2017-10-28T02:10:24.485Z,10.40
2017-10-28T02:12:51.458Z,10.40
2017-10-28T02:15:18.042Z,10.40
2017-10-28T02:17:44.834Z,10.40
2017-10-28T02:20:11.614Z,10.40
2017-10-28T02:22:38.996Z,10.40
2017-10-28T02:25:05.754Z,10.30
2017-10-28T02:27:33.958Z,10.40
2017-10-28T02:30:00.624Z,10.40
2017-10-28T02:32:27.100Z,10.50
2017-10-28T02:34:54.527Z,10.40
2017-10-28T02:37:21.150Z,10.40
2017-10-28T02:39:47.897Z,10.40
2017-10-28T02:42:14.477Z,10.40
2017-10-28T02:44:41.163Z,10.40
2017-10-28T02:47:07.817Z,10.40
2017-10-28T02:49:35.385Z,10.40
2017-10-28T02:52:02.034Z,10.40
2017-10-28T02:54:28.663Z,10.40
2017-10-28T02:56:55.495Z,10.40
2017-10-28T02:59:22.636Z,10.40
2017-10-28T03:01:49.888Z,10.40
2017-10-28T03:04:16.772Z,10.40
2017-10-28T03:12:25.283Z,10.10
2017-10-28T03:14:51.888Z,10.10
2017-10-28T03:17:18.548Z,10.00
2017-10-28T03:19:45.140Z,10.00
2017-10-28T03:22:12.511Z,10.10
2017-10-28T03:24:39.805Z,10.10
2017-10-28T03:27:06.395Z,10.10
2017-10-28T03:29:34.005Z,10.10
2017-10-28T03:32:00.673Z,10.00
2017-10-28T03:34:27.424Z,10.10
2017-10-28T03:36:53.991Z,10.20
2017-10-28T03:39:20.690Z,10.30
2017-10-28T03:41:48.432Z,10.30
2017-10-28T03:44:15.204Z,10.40
2017-10-28T03:46:42.025Z,10.40
2017-10-28T03:49:08.747Z,10.40
2017-10-28T03:51:35.455Z,10.30
2017-10-28T03:54:02.242Z,10.40
2017-10-28T03:56:28.858Z,10.50
2017-10-28T03:58:55.634Z,10.50
2017-10-28T04:01:22.344Z,10.50
2017-10-28T04:03:49.760Z,10.40
2017-10-28T04:06:16.647Z,10.40
2017-10-28T04:08:43.408Z,10.30
2017-10-28T04:11:10.149Z,10.30
2017-10-28T04:13:36.760Z,10.30
2017-10-28T04:16:03.503Z,10.20
2017-10-28T04:18:30.120Z,10.20
2017-10-28T04:20:56.914Z,10.20
2017-10-28T04:23:23.675Z,10.20
2017-10-28T04:25:50.428Z,10.20
2017-10-28T04:28:17.720Z,10.20
2017-10-28T04:30:44.510Z,10.30
2017-10-28T04:33:11.200Z,10.20
2017-10-28T04:35:37.837Z,10.30
2017-10-28T04:38:04.487Z,10.20
2017-10-28T04:40:31.232Z,10.30
2017-10-28T04:42:57.959Z,10.30
2017-10-28T04:45:24.744Z,10.30
2017-10-28T04:47:51.609Z,10.30
2017-10-28T04:50:18.381Z,10.40
2017-10-28T04:52:45.960Z,10.40
2017-10-28T04:55:12.784Z,10.40
2017-10-28T04:57:39.484Z,10.50
2017-10-28T05:00:06.160Z,10.50
2017-10-28T05:02:32.839Z,10.40
2017-10-28T05:04:59.811Z,10.40
2017-10-28T05:07:26.858Z,10.50
2017-10-28T05:09:53.700Z,10.50
2017-10-28T05:12:20.701Z,10.50
2017-10-28T05:14:48.356Z,10.40
2017-10-28T05:17:16.010Z,10.40
2017-10-28T05:19:42.573Z,10.40
2017-10-28T05:22:09.348Z,10.40
2017-10-28T05:24:36.759Z,10.40
2017-10-28T05:27:03.578Z,10.40
2017-10-28T05:29:30.841Z,10.40
2017-10-28T05:31:57.408Z,10.40
2017-10-28T05:34:24.083Z,10.30
2017-10-28T05:36:50.813Z,10.30
2017-10-28T05:39:17.522Z,10.30
2017-10-28T05:41:45.047Z,10.30
2017-10-28T05:44:11.953Z,10.30
2017-10-28T05:46:38.970Z,10.30
2017-10-28T05:49:06.439Z,10.30
2017-10-28T05:51:33.515Z,10.40
2017-10-28T05:54:00.817Z,10.30
2017-10-28T05:56:27.569Z,10.40
2017-10-28T05:58:54.388Z,10.40
2017-10-28T06:01:22.835Z,10.40
2017-10-28T06:03:49.601Z,10.50
2017-10-28T06:06:16.346Z,10.50
2017-10-28T06:08:43.209Z,10.50
2017-10-28T06:11:11.028Z,10.60
2017-10-28T06:13:38.447Z,10.50
2017-10-28T06:16:05.295Z,10.60
2017-10-28T06:18:32.952Z,10.60
2017-10-28T06:20:59.719Z,10.60
2017-10-28T06:23:27.005Z,10.60
2017-10-28T06:25:53.577Z,10.60
2017-10-28T06:28:20.727Z,10.70
2017-10-28T06:30:48.089Z,10.60
2017-10-28T06:33:14.886Z,10.60
2017-10-28T06:35:41.507Z,10.60
2017-10-28T06:38:08.379Z,10.70
2017-10-28T06:40:35.048Z,10.70
2017-10-28T06:43:01.696Z,10.70
2017-10-28T06:45:28.343Z,10.80
2017-10-28T06:47:55.020Z,10.80
2017-10-28T06:50:21.808Z,10.80
2017-10-28T06:52:48.445Z,10.80
2017-10-28T06:55:15.298Z,10.80
2017-10-28T06:57:42.326Z,10.80
2017-10-28T07:00:09.073Z,10.80
2017-10-28T07:02:35.896Z,10.80
2017-10-28T07:05:02.708Z,10.90
2017-10-28T07:07:29.378Z,10.90
2017-10-28T07:09:56.576Z,10.90
2017-10-28T07:12:23.519Z,10.90
2017-10-28T07:14:50.187Z,10.90
2017-10-28T07:17:16.842Z,10.90
2017-10-28T07:19:43.436Z,11.00
2017-10-28T07:22:10.837Z,11.00
2017-10-28T07:24:37.327Z,11.00
2017-10-28T07:27:04.093Z,11.00
2017-10-28T07:29:30.836Z,11.10
2017-10-28T07:31:57.649Z,11.20
2017-10-28T07:34:24.946Z,11.20
2017-10-28T07:36:51.715Z,11.20
2017-10-28T07:39:18.269Z,11.30
2017-10-28T07:41:44.786Z,11.40
2017-10-28T07:44:11.406Z,11.40
2017-10-28T07:46:38.050Z,11.40
2017-10-28T07:49:04.693Z,11.40
2017-10-28T07:51:31.398Z,11.40
2017-10-28T07:53:57.971Z,11.40
2017-10-28T07:56:24.538Z,11.40
2017-10-28T07:58:51.112Z,11.40
2017-10-28T08:01:17.766Z,11.40
2017-10-28T08:03:50.350Z,11.40
2017-10-28T08:06:17.105Z,11.40
2017-10-28T08:08:43.777Z,11.40
2017-10-28T08:11:10.517Z,11.40
2017-10-28T08:13:37.219Z,11.50
2017-10-28T08:16:03.825Z,11.60
2017-10-28T08:18:30.463Z,11.60
2017-10-28T08:20:57.109Z,11.70
2017-10-28T08:23:23.699Z,11.70
2017-10-28T08:25:50.222Z,11.70
2017-10-28T08:28:16.873Z,11.70
2017-10-28T08:30:43.859Z,11.80
2017-10-28T08:33:10.457Z,11.80
2017-10-28T08:35:36.923Z,11.80
2017-10-28T08:38:03.546Z,11.70
2017-10-28T08:40:30.209Z,11.80
2017-10-28T08:42:56.887Z,11.80
2017-10-28T08:45:23.541Z,11.80
2017-10-28T08:47:50.184Z,11.90
2017-10-28T08:50:16.993Z,11.80
2017-10-28T08:52:43.762Z,11.80
2017-10-28T08:55:10.407Z,11.90
2017-10-28T08:57:37.132Z,11.90
2017-10-28T09:00:03.936Z,12.00
2017-10-28T09:02:30.932Z,12.00
2017-10-28T09:04:58.159Z,12.10
2017-10-28T09:07:24.887Z,12.10
2017-10-28T09:09:51.628Z,12.20
2017-10-28T09:12:18.450Z,12.20
2017-10-28T09:14:45.989Z,12.10
2017-10-28T09:17:13.133Z,12.10
2017-10-28T09:19:40.785Z,12.10
2017-10-28T09:22:08.937Z,12.20
2017-10-28T09:24:36.480Z,12.10
2017-10-28T09:27:03.193Z,12.20
2017-10-28T09:29:30.028Z,12.10
2017-10-28T09:31:56.671Z,12.10
2017-10-28T09:34:23.442Z,12.20
2017-10-28T09:36:50.932Z,12.20
2017-10-28T09:39:18.541Z,12.10
2017-10-28T09:41:46.058Z,12.30
2017-10-28T09:44:13.430Z,12.30
2017-10-28T09:46:40.241Z,12.30
2017-10-28T09:49:07.032Z,12.30
2017-10-28T09:51:33.702Z,12.40
2017-10-28T09:54:00.303Z,12.40
2017-10-28T09:56:26.932Z,12.40
2017-10-28T09:58:53.746Z,12.40
2017-10-28T10:01:20.486Z,12.30
2017-10-28T10:03:47.804Z,12.40
2017-10-28T10:06:15.519Z,12.50
2017-10-28T10:08:42.306Z,12.50
2017-10-28T10:11:08.929Z,12.40
2017-10-28T10:13:36.174Z,12.50
2017-10-28T10:16:03.041Z,12.60
2017-10-28T10:18:29.694Z,12.60
2017-10-28T10:20:56.414Z,12.50
2017-10-28T10:23:23.192Z,12.60
2017-10-28T10:25:50.751Z,12.60
2017-10-28T10:28:17.459Z,12.60
2017-10-28T10:30:44.187Z,12.60
2017-10-28T10:33:10.871Z,12.70
2017-10-28T10:35:38.732Z,12.80
2017-10-28T10:38:05.798Z,12.80
2017-10-28T10:40:32.466Z,12.80
2017-10-28T10:42:59.217Z,12.80
2017-10-28T10:45:26.031Z,12.90
2017-10-28T10:47:52.815Z,13.00
2017-10-28T10:50:19.553Z,12.90
2017-10-28T10:52:46.692Z,12.80
2017-10-28T10:55:13.412Z,12.70
2017-10-28T10:57:40.055Z,12.70
2017-10-28T11:00:06.753Z,12.70
2017-10-28T11:02:34.500Z,12.70
2017-10-28T11:05:05.093Z,12.70
2017-10-28T11:07:31.719Z,12.60
2017-10-28T11:09:58.340Z,12.80
2017-10-28T11:12:24.969Z,12.70
2017-10-28T11:14:51.680Z,12.70
2017-10-28T11:17:18.319Z,12.70
2017-10-28T11:19:44.929Z,12.80
2017-10-28T11:22:11.761Z,12.60
2017-10-28T11:24:38.415Z,12.60
2017-10-28T11:27:05.909Z,12.60
2017-10-28T11:29:32.521Z,12.50
2017-10-28T11:31:59.166Z,12.50
2017-10-28T11:34:25.844Z,12.50
2017-10-28T11:36:52.609Z,12.40
2017-10-28T11:39:19.292Z,12.40
2017-10-28T11:41:45.952Z,12.40
2017-10-28T11:44:12.620Z,12.40
2017-10-28T11:46:39.261Z,12.40
2017-10-28T11:49:06.073Z,12.50
2017-10-28T11:51:32.883Z,12.50
2017-10-28T11:53:59.595Z,12.50
2017-10-28T11:56:26.457Z,12.50
2017-10-28T11:58:53.108Z,12.40
2017-10-28T12:01:20.012Z,12.40
2017-10-28T12:03:46.654Z,12.40
2017-10-28T12:06:14.648Z,12.50
2017-10-28T12:08:41.304Z,12.50
2017-10-28T12:11:08.102Z,12.50
2017-10-28T12:13:34.786Z,12.50
2017-10-28T12:16:01.656Z,12.40
2017-10-28T12:18:28.384Z,12.40
2017-10-28T12:20:54.976Z,12.40
2017-10-28T12:23:21.914Z,12.10
2017-10-28T12:25:50.407Z,12.00
2017-10-28T12:28:17.963Z,11.90
2017-10-28T12:30:44.854Z,12.00
2017-10-28T12:33:11.763Z,12.10
2017-10-28T12:35:38.813Z,12.20
2017-10-28T12:38:06.991Z,12.30
2017-10-28T12:40:33.656Z,12.40
2017-10-28T12:43:01.533Z,12.40
2017-10-28T12:45:28.672Z,12.50
2017-10-28T12:47:56.255Z,12.50
2017-10-28T12:50:23.235Z,12.50
2017-10-28T12:52:49.911Z,12.50
2017-10-28T12:55:16.767Z,12.50
2017-10-28T12:57:43.679Z,12.60
2017-10-28T13:00:10.777Z,12.60
2017-10-28T13:02:37.555Z,12.60
2017-10-28T13:05:04.345Z,12.60
2017-10-28T13:07:31.037Z,12.60
2017-10-28T13:09:57.778Z,12.50
2017-10-28T13:12:24.663Z,12.50
2017-10-28T13:14:51.781Z,12.50
2017-10-28T13:17:18.835Z,12.40
2017-10-28T13:19:45.709Z,12.40
2017-10-28T13:22:12.355Z,12.30
2017-10-28T13:24:39.052Z,12.20
2017-10-28T13:27:05.760Z,12.10
2017-10-28T13:29:32.441Z,12.10
2017-10-28T13:31:59.587Z,12.00
2017-10-28T13:34:28.293Z,12.00
2017-10-28T13:36:55.235Z,12.10
2017-10-28T13:39:23.101Z,12.10
2017-10-28T13:41:49.911Z,12.10
2017-10-28T13:44:16.661Z,12.10
2017-10-28T13:46:43.739Z,12.10
2017-10-28T13:49:10.592Z,12.10
2017-10-28T13:51:37.272Z,12.10
2017-10-28T13:54:04.535Z,12.10
2017-10-28T13:56:31.342Z,12.10
2017-10-28T13:58:58.167Z,12.00
2017-10-28T14:01:24.830Z,12.00
2017-10-28T14:03:51.784Z,12.00
2017-10-28T14:06:18.851Z,12.00
2017-10-28T14:08:47.492Z,12.00
2017-10-28T14:11:14.100Z,12.00
2017-10-28T14:13:41.039Z,12.00
2017-10-28T14:16:07.776Z,12.00
2017-10-28T14:18:36.628Z,12.00
2017-10-28T14:21:03.444Z,12.00
2017-10-28T14:23:30.444Z,11.90
2017-10-28T14:25:57.236Z,11.90
2017-10-28T14:28:23.740Z,11.80
2017-10-28T14:30:50.420Z,11.80
2017-10-28T14:33:17.133Z,11.80
2017-10-28T14:35:43.954Z,11.80
2017-10-28T14:38:10.630Z,11.80
2017-10-28T14:40:37.371Z,11.70
2017-10-28T14:43:04.131Z,11.70
2017-10-28T14:45:30.831Z,11.70
2017-10-28T14:47:57.564Z,11.70
2017-10-28T14:50:24.280Z,11.60
2017-10-28T14:52:50.928Z,11.60
2017-10-28T14:55:17.666Z,11.70
2017-10-28T14:57:45.313Z,11.70
2017-10-28T15:00:11.897Z,11.70
2017-10-28T15:02:38.632Z,11.70
2017-10-28T15:05:05.215Z,11.70
2017-10-28T15:07:31.856Z,11.70
2017-10-28T15:09:58.371Z,11.80
2017-10-28T15:12:24.995Z,11.80
2017-10-28T15:14:51.696Z,11.80
2017-10-28T15:17:18.560Z,11.70
2017-10-28T15:19:45.382Z,11.70
2017-10-28T15:22:12.005Z,11.70
2017-10-28T15:24:38.512Z,11.80
2017-10-28T15:27:05.265Z,11.70
2017-10-28T15:29:32.125Z,11.70
2017-10-28T15:31:58.772Z,11.70
2017-10-28T15:34:25.535Z,11.60
2017-10-28T15:36:52.345Z,11.60
2017-10-28T15:39:19.087Z,11.60
2017-10-28T15:41:45.901Z,11.60
2017-10-28T15:44:13.248Z,11.50
2017-10-28T15:46:40.144Z,11.40
2017-10-28T15:49:06.750Z,11.30
2017-10-28T15:51:33.437Z,11.30
2017-10-28T15:54:00.053Z,11.40
2017-10-28T15:56:26.820Z,11.50
2017-10-28T15:58:53.673Z,11.40
2017-10-28T16:01:20.480Z,11.40
2017-10-28T16:03:47.210Z,11.40
2017-10-28T16:06:14.075Z,11.50
2017-10-28T16:08:40.999Z,11.50
2017-10-28T16:11:08.304Z,11.50
2017-10-28T16:13:35.134Z,11.60
2017-10-28T16:16:03.723Z,11.60
2017-10-28T16:18:30.562Z,11.60
2017-10-28T16:20:57.384Z,11.60
2017-10-28T16:23:24.456Z,11.60
2017-10-28T16:25:51.869Z,11.60
2017-10-28T16:28:18.852Z,11.50
2017-10-28T16:30:45.760Z,11.60
2017-10-28T16:33:12.599Z,11.50
2017-10-28T16:35:39.340Z,11.50
2017-10-28T16:38:06.008Z,11.50
2017-10-28T16:40:32.727Z,11.50
2017-10-28T16:42:59.348Z,11.50
2017-10-28T16:45:26.867Z,11.50
2017-10-28T16:47:53.773Z,11.50
2017-10-28T16:50:21.267Z,11.40
2017-10-28T16:52:48.197Z,11.40
2017-10-28T16:55:15.671Z,11.40
2017-10-28T16:57:42.635Z,11.40
2017-10-28T17:00:09.587Z,11.40
2017-10-28T17:02:36.373Z,11.40
2017-10-28T17:05:03.956Z,11.50
2017-10-28T17:07:31.133Z,11.50
2017-10-28T17:09:57.894Z,11.50
2017-10-28T17:12:24.519Z,11.50
2017-10-28T17:14:51.189Z,11.50
2017-10-28T17:17:17.977Z,11.60
2017-10-28T17:19:44.818Z,11.60
2017-10-28T17:22:12.019Z,11.50
2017-10-28T17:24:38.611Z,11.60
2017-10-28T17:27:05.390Z,11.50
2017-10-28T17:29:32.252Z,11.50
2017-10-28T17:31:59.211Z,11.50
2017-10-28T17:34:26.007Z,11.50
2017-10-28T17:36:52.587Z,11.40
2017-10-28T17:39:19.659Z,11.40
2017-10-28T17:41:48.130Z,11.40
2017-10-28T17:44:16.434Z,11.20
2017-10-28T17:46:43.453Z,11.20
2017-10-28T17:49:10.254Z,11.00
2017-10-28T17:51:37.733Z,11.00
2017-10-28T17:54:04.501Z,11.00
2017-10-28T17:56:32.314Z,10.90
2017-10-28T17:58:59.577Z,10.80
2017-10-28T18:01:27.596Z,10.70
2017-10-28T18:03:55.412Z,10.70
2017-10-28T18:06:24.371Z,10.60
2017-10-28T18:08:51.085Z,10.60
2017-10-28T18:11:18.781Z,10.60
2017-10-28T18:13:45.802Z,10.60
2017-10-28T18:16:12.565Z,10.60
2017-10-28T18:18:39.231Z,10.50
2017-10-28T18:21:06.009Z,10.50
2017-10-28T18:23:32.855Z,10.50
2017-10-28T18:25:59.818Z,10.50
2017-10-28T18:28:26.666Z,10.50
2017-10-28T18:30:53.346Z,10.50
2017-10-28T18:33:20.093Z,10.50
2017-10-28T18:35:47.577Z,10.50
2017-10-28T18:38:14.280Z,10.50
2017-10-28T18:40:40.914Z,10.50
2017-10-28T18:43:07.475Z,10.50
2017-10-28T18:45:34.491Z,10.50
2017-10-28T18:48:01.175Z,10.60
2017-10-28T18:50:28.247Z,10.50
2017-10-28T18:52:54.825Z,10.50
2017-10-28T18:55:21.424Z,10.50
2017-10-28T18:57:48.433Z,10.60
2017-10-28T19:00:15.128Z,10.60
2017-10-28T19:02:42.029Z,10.60
2017-10-28T19:05:08.834Z,10.60
2017-10-28T19:07:35.449Z,10.50
2017-10-28T19:10:02.076Z,10.60
2017-10-28T19:12:28.716Z,10.60
2017-10-28T19:14:55.383Z,10.60
2017-10-28T19:17:22.262Z,10.60
2017-10-28T19:19:49.963Z,10.60
2017-10-28T19:22:16.601Z,10.60
2017-10-28T19:24:43.871Z,10.60
2017-10-28T19:27:10.590Z,10.60
2017-10-28T19:29:37.850Z,10.60
2017-10-28T19:32:04.590Z,10.60
2017-10-28T19:34:31.401Z,10.60
2017-10-28T19:36:58.110Z,10.70
2017-10-28T19:39:24.749Z,10.70
2017-10-28T19:41:51.510Z,10.60
2017-10-28T19:44:18.473Z,10.70
2017-10-28T19:46:45.204Z,10.60
2017-10-28T19:49:12.903Z,10.70
2017-10-28T19:51:41.883Z,10.70
2017-10-28T19:54:09.154Z,10.60
2017-10-28T19:56:37.780Z,10.60
2017-10-28T19:59:04.710Z,10.60
2017-10-28T20:01:32.161Z,10.50
2017-10-28T20:03:59.029Z,10.60
2017-10-28T20:06:25.809Z,10.60
2017-10-28T20:08:52.666Z,10.60
2017-10-28T20:11:19.511Z,10.60
2017-10-28T20:13:46.071Z,10.60
2017-10-28T20:16:12.743Z,10.50
2017-10-28T20:18:39.365Z,10.50
2017-10-28T20:21:06.158Z,10.50
2017-10-28T20:23:32.852Z,10.50
2017-10-28T20:25:59.453Z,10.50
2017-10-28T20:28:27.113Z,10.40
2017-10-28T20:30:53.754Z,10.40
2017-10-28T20:33:20.477Z,10.40
2017-10-28T20:35:47.107Z,10.50
2017-10-28T20:38:14.552Z,10.40
2017-10-28T20:40:41.233Z,10.40
2017-10-28T20:43:08.016Z,10.40
2017-10-28T20:45:35.021Z,10.40
2017-10-28T20:48:01.884Z,10.40
2017-10-28T20:50:28.773Z,10.50
2017-10-28T20:52:55.331Z,10.50
2017-10-28T20:55:21.909Z,10.50
2017-10-28T20:57:49.375Z,10.50
2017-10-28T21:00:17.104Z,10.60
2017-10-28T21:02:43.817Z,10.60
2017-10-28T21:05:11.404Z,10.60
2017-10-28T21:07:38.882Z,10.70
2017-10-28T21:10:05.532Z,10.80
2017-10-28T21:12:32.068Z,10.70
2017-10-28T21:14:58.710Z,10.80
2017-10-28T21:17:25.456Z,10.80
2017-10-28T21:19:53.054Z,10.80
2017-10-28T21:22:19.668Z,10.80
2017-10-28T21:24:46.535Z,10.80
2017-10-28T21:27:13.740Z,10.90
2017-10-28T21:29:40.557Z,10.90
2017-10-28T21:32:07.511Z,10.90
2017-10-28T21:34:34.302Z,10.90
2017-10-28T21:37:01.044Z,10.90
2017-10-28T21:39:27.921Z,11.00
2017-10-28T21:41:54.587Z,11.10
2017-10-28T21:44:21.216Z,11.00
2017-10-28T21:46:48.727Z,10.90
2017-10-28T21:49:15.518Z,10.90
2017-10-28T21:51:42.356Z,10.90
2017-10-28T21:54:09.158Z,11.00
2017-10-28T21:56:35.736Z,10.90
2017-10-28T21:59:02.932Z,10.90
2017-10-28T22:01:29.701Z,10.90
2017-10-28T22:03:56.386Z,10.90
2017-10-28T22:06:23.472Z,10.90
2017-10-28T22:08:50.216Z,10.90
2017-10-28T22:11:17.830Z,10.90
2017-10-28T22:13:44.647Z,10.90
2017-10-28T22:16:11.780Z,11.00
2017-10-28T22:18:38.518Z,10.90
2017-10-28T22:21:05.178Z,11.00
2017-10-28T22:23:31.983Z,11.00
2017-10-28T22:25:58.619Z,11.00
2017-10-28T22:28:26.510Z,11.10
2017-10-28T22:30:53.303Z,11.00
2017-10-28T22:33:20.515Z,11.10
2017-10-28T22:35:47.252Z,11.10
2017-10-28T22:38:14.074Z,11.20
2017-10-28T22:40:40.728Z,11.20
2017-10-28T22:43:07.588Z,11.20
2017-10-28T22:45:34.515Z,11.30
2017-10-28T22:48:01.149Z,11.20
2017-10-28T22:50:27.937Z,11.10
2017-10-28T22:52:54.560Z,11.10
2017-10-28T22:55:21.152Z,11.10
2017-10-28T22:57:47.799Z,11.10
2017-10-28T23:00:14.509Z,11.10
2017-10-28T23:02:41.088Z,11.10
2017-10-28T23:05:07.604Z,11.20
2017-10-28T23:07:34.320Z,11.30
2017-10-28T23:10:00.872Z,11.20
2017-10-28T23:12:27.559Z,11.20
2017-10-28T23:15:01.980Z,11.30
2017-10-28T23:17:28.821Z,11.30
2017-10-28T23:19:55.686Z,11.40
2017-10-28T23:22:22.426Z,11.40
2017-10-28T23:24:49.085Z,11.40
2017-10-28T23:27:15.941Z,11.40
2017-10-28T23:29:43.604Z,11.40
2017-10-28T23:32:10.282Z,11.40
2017-10-28T23:34:37.021Z,11.50
2017-10-28T23:37:03.890Z,11.50
2017-10-28T23:39:30.563Z,11.60
2017-10-28T23:41:57.522Z,11.60
2017-10-28T23:44:24.343Z,11.60
2017-10-28T23:46:51.021Z,11.60
2017-10-28T23:49:17.742Z,11.60
2017-10-28T23:51:44.439Z,11.60
2017-10-28T23:54:11.046Z,11.70
2017-10-28T23:56:37.825Z,11.50
2017-10-28T23:59:04.556Z,11.40
